Time;durP1;ratioP1;P1;durP2;ratioP2;P2;SDS_P1;SDS_P2;PMS_P1;PMS_P2;Temp;Humidity;BMP_temperature;BMP_pressure;BME280_temperature;BME280_humidity;BME280_pressure;Samples;Min_cycle;Max_cycle;Signal;HPM_P1;HPM_P2
2023/07/19 00:00:31;;;;;;;0.50;0.50;;;;;;;;;;5092257;28;20275;-82
2023/07/19 00:02:59;;;;;;;12.00;0.80;;;;;;;;;;5092691;28;20199;-82
2023/07/19 00:05:28;;;;;;;0.60;0.60;;;;;;;;;;5092240;28;20269;-83
2023/07/19 00:07:56;;;;;;;0.30;0.30;;;;;;;;;;5092484;28;20204;-82
2023/07/19 00:10:25;;;;;;;0.60;0.60;;;;;;;;;;5092267;28;20241;-82
2023/07/19 00:12:53;;;;;;;1.33;1.33;;;;;;;;;;5092673;28;20207;-82
2023/07/19 00:15:24;;;;;;;0.30;0.30;;;;;;;;;;5092066;28;20214;-82
2023/07/19 00:17:54;;;;;;;0.57;0.57;;;;;;;;;;5092713;28;20201;-82
2023/07/19 00:20:23;;;;;;;0.30;0.30;;;;;;;;;;5092206;28;20201;-82
2023/07/19 00:22:51;;;;;;;0.60;0.60;;;;;;;;;;5092615;28;20215;-82
2023/07/19 00:25:20;;;;;;;0.40;0.40;;;;;;;;;;5092431;28;20203;-82
2023/07/19 00:27:49;;;;;;;3.23;3.03;;;;;;;;;;5092509;28;20231;-82
2023/07/19 00:30:20;;;;;;;0.60;0.60;;;;;;;;;;5091763;28;20197;-82
2023/07/19 00:32:49;;;;;;;0.87;0.87;;;;;;;;;;5092344;28;20197;-82
2023/07/19 00:35:19;;;;;;;0.83;0.80;;;;;;;;;;5092049;28;20262;-82
2023/07/19 00:37:48;;;;;;;6.30;1.77;;;;;;;;;;5092514;28;20199;-82
2023/07/19 00:40:19;;;;;;;0.70;0.70;;;;;;;;;;5091370;28;20201;-82
2023/07/19 00:42:48;;;;;;;0.90;0.90;;;;;;;;;;5092404;28;20200;-82
2023/07/19 00:45:16;;;;;;;0.30;0.30;;;;;;;;;;5091817;28;20200;-82
2023/07/19 00:47:45;;;;;;;0.30;0.30;;;;;;;;;;5092107;28;20227;-83
2023/07/19 00:50:13;;;;;;;2.30;1.80;;;;;;;;;;5091478;28;20210;-83
2023/07/19 00:52:43;;;;;;;0.60;0.60;;;;;;;;;;5092031;28;20282;-82
2023/07/19 00:55:12;;;;;;;0.30;0.30;;;;;;;;;;5092649;28;20229;-82
2023/07/19 00:57:40;;;;;;;0.30;0.30;;;;;;;;;;5091633;28;20197;-82
2023/07/19 01:00:09;;;;;;;0.40;0.40;;;;;;;;;;5091627;28;20201;-82
2023/07/19 01:02:38;;;;;;;0.70;0.70;;;;;;;;;;5091742;28;20212;-83
2023/07/19 01:05:07;;;;;;;0.87;0.87;;;;;;;;;;5091760;28;20239;-83
2023/07/19 01:07:35;;;;;;;0.70;0.70;;;;;;;;;;5091718;28;20204;-82
2023/07/19 01:10:06;;;;;;;0.30;0.30;;;;;;;;;;5091738;28;20201;-82
2023/07/19 01:12:34;;;;;;;1.67;1.57;;;;;;;;;;5092002;28;20197;-82
2023/07/19 01:15:08;;;;;;;0.40;0.40;;;;;;;;;;5095306;28;20200;-82
2023/07/19 01:17:37;;;;;;;0.40;0.40;;;;;;;;;;5095806;28;20202;-82
2023/07/19 01:20:08;;;;;;;0.53;0.53;;;;;;;;;;5095684;28;20257;-82
2023/07/19 01:22:38;;;;;;;0.40;0.40;;;;;;;;;;5095814;28;20194;-82
2023/07/19 01:25:07;;;;;;;0.37;0.37;;;;;;;;;;5095761;28;20229;-82
2023/07/19 01:27:35;;;;;;;0.40;0.40;;;;;;;;;;5095795;28;20260;-83
2023/07/19 01:30:04;;;;;;;0.30;0.30;;;;;;;;;;5095762;28;20210;-83
2023/07/19 01:32:33;;;;;;;0.40;0.40;;;;;;;;;;5095055;28;20268;-83
2023/07/19 01:35:01;;;;;;;0.43;0.43;;;;;;;;;;5095407;28;20489;-82
2023/07/19 01:37:30;;;;;;;0.50;0.50;;;;;;;;;;5095054;28;20281;-82
2023/07/19 01:40:01;;;;;;;0.40;0.40;;;;;;;;;;5095475;28;20202;-82
2023/07/19 01:42:30;;;;;;;1.33;1.27;;;;;;;;;;5094933;28;20197;-83
2023/07/19 01:44:59;;;;;;;0.50;0.50;;;;;;;;;;5095259;28;20243;-83
2023/07/19 01:47:27;;;;;;;2.00;0.93;;;;;;;;;;5095305;28;20192;-83
2023/07/19 01:49:56;;;;;;;0.53;0.53;;;;;;;;;;5094855;28;20253;-83
2023/07/19 01:52:24;;;;;;;0.30;0.30;;;;;;;;;;5094640;28;20251;-82
2023/07/19 01:54:53;;;;;;;1.70;1.13;;;;;;;;;;5095435;28;20205;-82
2023/07/19 01:57:23;;;;;;;0.40;0.40;;;;;;;;;;5094901;28;20224;-82
2023/07/19 01:59:51;;;;;;;1.07;0.97;;;;;;;;;;5094405;28;20204;-82
2023/07/19 02:02:19;;;;;;;0.40;0.40;;;;;;;;;;5094679;28;20206;-82
2023/07/19 02:04:48;;;;;;;0.50;0.50;;;;;;;;;;5094778;28;20209;-82
2023/07/19 02:07:17;;;;;;;1.67;1.57;;;;;;;;;;5094811;28;20197;-82
2023/07/19 02:09:46;;;;;;;0.40;0.40;;;;;;;;;;5094486;28;20212;-82
2023/07/19 02:12:14;;;;;;;0.70;0.70;;;;;;;;;;5094509;28;20206;-82
2023/07/19 02:14:46;;;;;;;1.90;0.77;;;;;;;;;;5095098;28;20204;-82
2023/07/19 02:17:14;;;;;;;0.50;0.50;;;;;;;;;;5094141;28;20285;-82
2023/07/19 02:19:43;;;;;;;3.80;1.40;;;;;;;;;;5094751;28;20259;-82
2023/07/19 02:22:12;;;;;;;2.20;1.60;;;;;;;;;;5093865;28;20205;-82
2023/07/19 02:24:40;;;;;;;1.33;0.83;;;;;;;;;;5093933;28;20197;-82
2023/07/19 02:27:09;;;;;;;0.70;0.70;;;;;;;;;;5094066;28;20197;-82
2023/07/19 02:29:37;;;;;;;4.90;4.50;;;;;;;;;;5094612;28;20204;-82
2023/07/19 02:32:07;;;;;;;1.90;1.00;;;;;;;;;;5094335;28;20202;-82
2023/07/19 02:34:36;;;;;;;0.63;0.63;;;;;;;;;;5094148;28;20212;-82
2023/07/19 02:37:04;;;;;;;0.40;0.40;;;;;;;;;;5094113;28;20225;-82
2023/07/19 02:39:33;;;;;;;0.30;0.30;;;;;;;;;;5094925;28;20215;-82
2023/07/19 02:42:02;;;;;;;1.07;0.97;;;;;;;;;;5094054;28;20296;-82
2023/07/19 02:44:30;;;;;;;0.83;0.83;;;;;;;;;;5093717;28;20197;-82
2023/07/19 02:46:59;;;;;;;1.17;1.17;;;;;;;;;;5094077;28;20196;-82
2023/07/19 02:49:28;;;;;;;1.10;0.40;;;;;;;;;;5094132;28;20240;-82
2023/07/19 02:51:57;;;;;;;0.40;0.40;;;;;;;;;;5093240;28;20244;-82
2023/07/19 02:54:25;;;;;;;0.40;0.40;;;;;;;;;;5093777;28;20244;-82
2023/07/19 02:56:54;;;;;;;2.93;2.63;;;;;;;;;;5093844;28;20231;-82
2023/07/19 02:59:22;;;;;;;0.30;0.30;;;;;;;;;;5093754;28;20205;-82
2023/07/19 03:01:51;;;;;;;0.40;0.40;;;;;;;;;;5093248;28;20203;-82
2023/07/19 03:04:19;;;;;;;0.40;0.40;;;;;;;;;;5093428;28;20189;-82
2023/07/19 03:06:49;;;;;;;0.47;0.47;;;;;;;;;;5093832;28;20224;-82
2023/07/19 03:09:19;;;;;;;1.17;1.07;;;;;;;;;;5093259;28;20216;-82
2023/07/19 03:11:48;;;;;;;0.30;0.30;;;;;;;;;;5093490;28;20197;-82
2023/07/19 03:14:17;;;;;;;5.57;0.73;;;;;;;;;;5093637;28;20205;-82
2023/07/19 03:16:47;;;;;;;0.40;0.40;;;;;;;;;;5092784;28;20228;-82
2023/07/19 03:19:16;;;;;;;0.40;0.40;;;;;;;;;;5092962;28;20205;-82
2023/07/19 03:21:45;;;;;;;0.50;0.50;;;;;;;;;;5093297;28;20204;-82
2023/07/19 03:24:16;;;;;;;0.83;0.83;;;;;;;;;;5093760;28;20228;-82
2023/07/19 03:26:44;;;;;;;0.30;0.30;;;;;;;;;;5092797;28;20186;-82
2023/07/19 03:29:13;;;;;;;0.40;0.40;;;;;;;;;;5092990;28;20294;-82
2023/07/19 03:31:41;;;;;;;0.30;0.30;;;;;;;;;;5092716;28;20246;-82
2023/07/19 03:34:10;;;;;;;0.30;0.30;;;;;;;;;;5093164;28;20201;-82
2023/07/19 03:36:38;;;;;;;2.57;1.17;;;;;;;;;;5091601;28;20270;-82
2023/07/19 03:39:07;;;;;;;0.60;0.60;;;;;;;;;;5093250;28;20201;-82
2023/07/19 03:41:37;;;;;;;0.60;0.60;;;;;;;;;;5092365;28;20201;-82
2023/07/19 03:44:05;;;;;;;0.40;0.40;;;;;;;;;;5092504;28;20194;-82
2023/07/19 03:46:34;;;;;;;0.70;0.70;;;;;;;;;;5093107;28;20209;-82
2023/07/19 03:49:03;;;;;;;0.53;0.53;;;;;;;;;;5092971;28;20201;-83
2023/07/19 03:51:31;;;;;;;0.70;0.70;;;;;;;;;;5092555;28;20240;-83
2023/07/19 03:54:00;;;;;;;0.80;0.80;;;;;;;;;;5092140;28;20232;-83
2023/07/19 03:56:29;;;;;;;13.93;1.63;;;;;;;;;;5092853;28;20206;-83
2023/07/19 03:58:59;;;;;;;1.83;0.93;;;;;;;;;;5092520;28;20205;-83
2023/07/19 04:01:27;;;;;;;2.40;1.47;;;;;;;;;;5091919;28;20209;-83
2023/07/19 04:03:56;;;;;;;0.73;0.73;;;;;;;;;;5092882;28;20253;-83
2023/07/19 04:06:24;;;;;;;0.53;0.53;;;;;;;;;;5092508;28;20268;-83
2023/07/19 04:08:53;;;;;;;0.33;0.33;;;;;;;;;;5092043;28;20193;-83
2023/07/19 04:11:21;;;;;;;0.50;0.50;;;;;;;;;;5092172;28;20207;-83
2023/07/19 04:13:50;;;;;;;1.30;1.20;;;;;;;;;;5092333;28;20201;-83
2023/07/19 04:16:20;;;;;;;2.90;0.93;;;;;;;;;;5092703;28;20201;-83
2023/07/19 04:18:49;;;;;;;0.83;0.83;;;;;;;;;;5092128;28;20217;-83
2023/07/19 04:21:17;;;;;;;0.40;0.40;;;;;;;;;;5091702;28;20230;-83
2023/07/19 04:23:46;;;;;;;4.33;1.17;;;;;;;;;;5092231;28;20189;-83
2023/07/19 04:26:15;;;;;;;0.43;0.43;;;;;;;;;;5092138;28;20201;-84
2023/07/19 04:28:43;;;;;;;0.40;0.40;;;;;;;;;;5091664;28;20224;-82
2023/07/19 04:31:12;;;;;;;1.03;1.03;;;;;;;;;;5091966;28;20254;-83
2023/07/19 04:33:42;;;;;;;0.30;0.30;;;;;;;;;;5091959;28;20212;-83
2023/07/19 04:36:14;;;;;;;0.57;0.57;;;;;;;;;;5091835;28;20224;-83
2023/07/19 04:38:43;;;;;;;0.40;0.40;;;;;;;;;;5091951;28;20213;-83
2023/07/19 04:41:12;;;;;;;0.73;0.73;;;;;;;;;;5091797;28;20205;-83
2023/07/19 04:43:40;;;;;;;1.13;1.13;;;;;;;;;;5091731;28;20203;-83
2023/07/19 04:46:08;;;;;;;1.67;1.57;;;;;;;;;;5091377;28;20227;-84
2023/07/19 04:48:37;;;;;;;0.37;0.37;;;;;;;;;;5091649;28;20250;-84
2023/07/19 04:51:07;;;;;;;1.10;1.07;;;;;;;;;;5091814;28;20205;-83
2023/07/19 04:53:35;;;;;;;4.03;0.93;;;;;;;;;;5091129;28;20303;-83
2023/07/19 04:56:04;;;;;;;0.57;0.57;;;;;;;;;;5091649;28;20204;-83
2023/07/19 04:58:33;;;;;;;0.40;0.40;;;;;;;;;;5091299;28;20213;-83
2023/07/19 05:01:05;;;;;;;0.50;0.50;;;;;;;;;;5091577;28;20202;-84
2023/07/19 05:03:34;;;;;;;0.63;0.63;;;;;;;;;;5091579;28;20233;-84
2023/07/19 05:06:02;;;;;;;2.53;1.27;;;;;;;;;;5092065;28;20209;-83
2023/07/19 05:08:32;;;;;;;0.47;0.47;;;;;;;;;;5091696;28;20194;-83
2023/07/19 05:11:01;;;;;;;0.60;0.60;;;;;;;;;;5091124;28;20198;-83
2023/07/19 05:13:30;;;;;;;0.43;0.43;;;;;;;;;;5091784;28;20219;-83
2023/07/19 05:15:59;;;;;;;0.47;0.47;;;;;;;;;;5091769;28;20295;-83
2023/07/19 05:18:27;;;;;;;0.57;0.57;;;;;;;;;;5091640;28;20272;-83
2023/07/19 05:20:56;;;;;;;1.33;1.23;;;;;;;;;;5091071;28;20207;-83
2023/07/19 05:23:24;;;;;;;0.40;0.40;;;;;;;;;;5091437;28;20229;-82
2023/07/19 05:25:55;;;;;;;3.60;1.47;;;;;;;;;;5091267;28;20196;-82
2023/07/19 05:28:25;;;;;;;2.73;1.47;;;;;;;;;;5091216;28;20244;-83
2023/07/19 05:30:54;;;;;;;1.43;0.77;;;;;;;;;;5091442;28;20200;-83
2023/07/19 05:33:22;;;;;;;0.57;0.57;;;;;;;;;;5091298;28;20200;-83
2023/07/19 05:35:51;;;;;;;0.37;0.37;;;;;;;;;;5091549;28;20204;-84
2023/07/19 05:38:19;;;;;;;0.50;0.50;;;;;;;;;;5090783;28;20209;-83
2023/07/19 05:40:48;;;;;;;0.40;0.40;;;;;;;;;;5091551;28;20200;-84
2023/07/19 05:43:18;;;;;;;2.37;0.97;;;;;;;;;;5091486;28;20205;-84
2023/07/19 05:45:47;;;;;;;1.00;0.60;;;;;;;;;;5090958;28;20202;-83
2023/07/19 05:48:15;;;;;;;0.47;0.47;;;;;;;;;;5091019;28;20292;-84
2023/07/19 05:50:44;;;;;;;8.97;1.27;;;;;;;;;;5091291;28;20205;-83
2023/07/19 05:53:13;;;;;;;0.70;0.70;;;;;;;;;;5090864;28;20243;-84
2023/07/19 05:55:44;;;;;;;0.40;0.40;;;;;;;;;;5090369;28;20194;-82
2023/07/19 05:58:13;;;;;;;0.40;0.40;;;;;;;;;;5091474;28;20223;-81
2023/07/19 06:00:43;;;;;;;0.30;0.30;;;;;;;;;;5094650;28;20221;-82
2023/07/19 06:03:11;;;;;;;0.50;0.50;;;;;;;;;;5094423;28;20235;-83
2023/07/19 06:05:43;;;;;;;0.93;0.77;;;;;;;;;;5095056;28;20288;-82
2023/07/19 06:08:12;;;;;;;0.93;0.93;;;;;;;;;;5094901;28;20231;-82
2023/07/19 06:10:53;;;;;;;2.83;1.47;;;;;;;;;;5094116;28;20207;-82
2023/07/19 06:13:22;;;;;;;2.67;1.40;;;;;;;;;;5094050;28;20206;-83
2023/07/19 06:15:52;;;;;;;0.83;0.83;;;;;;;;;;5094289;28;20262;-83
2023/07/19 06:18:20;;;;;;;3.07;1.33;;;;;;;;;;5094430;28;20205;-82
2023/07/19 06:20:49;;;;;;;1.50;1.40;;;;;;;;;;5094626;28;20194;-82
2023/07/19 06:23:22;;;;;;;0.40;0.40;;;;;;;;;;5094136;28;20227;-82
2023/07/19 06:25:54;;;;;;;0.40;0.40;;;;;;;;;;5094509;28;20207;-82
2023/07/19 06:28:22;;;;;;;1.17;1.07;;;;;;;;;;5094016;28;20209;-82
2023/07/19 06:30:52;;;;;;;1.50;1.40;;;;;;;;;;5093765;28;20203;-82
2023/07/19 06:33:21;;;;;;;2.20;1.20;;;;;;;;;;5094318;28;20328;-84
2023/07/19 06:35:51;;;;;;;0.40;0.40;;;;;;;;;;5093993;28;20262;-84
2023/07/19 06:38:23;;;;;;;3.73;2.30;;;;;;;;;;5090412;28;20222;-85
2023/07/19 06:40:51;;;;;;;0.40;0.40;;;;;;;;;;5075052;28;20205;-84
2023/07/19 06:43:21;;;;;;;0.40;0.40;;;;;;;;;;5074267;28;20204;-83
2023/07/19 06:45:50;;;;;;;0.40;0.40;;;;;;;;;;5073628;28;20232;-83
2023/07/19 06:48:20;;;;;;;0.40;0.40;;;;;;;;;;5073219;28;20197;-84
2023/07/19 06:50:49;;;;;;;0.50;0.50;;;;;;;;;;5073866;28;20220;-84
2023/07/19 06:53:18;;;;;;;0.40;0.40;;;;;;;;;;5073300;28;20240;-84
2023/07/19 06:55:46;;;;;;;0.40;0.40;;;;;;;;;;5073162;28;20195;-84
2023/07/19 06:58:25;;;;;;;0.40;0.40;;;;;;;;;;5073373;28;20192;-85
2023/07/19 07:04:23;;;;;;;0.40;0.40;;;;;;;;;;5072906;28;20206;-84
2023/07/19 07:07:02;;;;;;;0.60;0.60;;;;;;;;;;4991012;28;20405;-84
2023/07/19 07:09:38;;;;;;;0.50;0.50;;;;;;;;;;5033735;28;20193;-84
2023/07/19 07:12:08;;;;;;;0.37;0.37;;;;;;;;;;5072695;28;20204;-85
2023/07/19 07:14:40;;;;;;;0.80;0.80;;;;;;;;;;5072822;28;20215;-83
2023/07/19 07:17:12;;;;;;;1.80;1.60;;;;;;;;;;5072991;28;20230;-84
2023/07/19 07:19:46;;;;;;;0.30;0.30;;;;;;;;;;5072713;28;20209;-83
2023/07/19 07:27:52;;;;;;;0.50;0.50;;;;;;;;;;5063738;28;20213;-84
2023/07/19 07:30:20;;;;;;;0.70;0.70;;;;;;;;;;5073549;28;20214;-83
2023/07/19 07:32:58;;;;;;;0.40;0.40;;;;;;;;;;5072997;28;20234;-83
2023/07/19 07:35:30;;;;;;;0.90;0.83;;;;;;;;;;5072959;28;20260;-84
2023/07/19 07:38:01;;;;;;;0.70;0.70;;;;;;;;;;5073542;28;20245;-83
2023/07/19 07:40:40;;;;;;;4.83;0.60;;;;;;;;;;5073161;28;20213;-83
2023/07/19 07:43:12;;;;;;;0.90;0.90;;;;;;;;;;5073092;28;20201;-83
2023/07/19 07:45:54;;;;;;;2.40;1.27;;;;;;;;;;5072664;28;20256;-83
2023/07/19 07:48:30;;;;;;;1.20;1.20;;;;;;;;;;5072275;28;20252;-83
2023/07/19 07:51:09;;;;;;;1.13;1.07;;;;;;;;;;5073091;28;20304;-84
2023/07/19 07:53:45;;;;;;;4.37;1.87;;;;;;;;;;5073047;28;20302;-84
2023/07/19 07:56:27;;;;;;;1.00;0.50;;;;;;;;;;5072248;28;20201;-84
2023/07/19 07:59:05;;;;;;;1.07;1.07;;;;;;;;;;5072776;28;20211;-83
2023/07/19 08:01:37;;;;;;;0.60;0.60;;;;;;;;;;5072640;28;20255;-84
2023/07/19 08:04:16;;;;;;;1.50;1.40;;;;;;;;;;5072512;28;20248;-83
2023/07/19 08:06:58;;;;;;;3.53;1.80;;;;;;;;;;5072292;28;20206;-84
2023/07/19 08:09:35;;;;;;;0.50;0.50;;;;;;;;;;5072541;28;20176;-83
2023/07/19 08:12:18;;;;;;;1.37;0.60;;;;;;;;;;5072282;28;20207;-84
2023/07/19 08:14:47;;;;;;;0.70;0.70;;;;;;;;;;5072308;28;20200;-84
2023/07/19 08:17:15;;;;;;;4.37;2.00;;;;;;;;;;5072287;28;20296;-84
2023/07/19 08:19:44;;;;;;;2.93;1.87;;;;;;;;;;5072723;28;20215;-84
2023/07/19 08:22:25;;;;;;;2.73;1.50;;;;;;;;;;5071221;28;20194;-84
2023/07/19 08:24:55;;;;;;;2.23;1.63;;;;;;;;;;5071498;28;20204;-84
2023/07/19 08:27:35;;;;;;;1.73;1.40;;;;;;;;;;5071746;28;20225;-84
2023/07/19 08:30:07;;;;;;;1.40;1.30;;;;;;;;;;5072123;28;20200;-84
2023/07/19 08:32:35;;;;;;;0.67;0.67;;;;;;;;;;5071139;28;20298;-84
2023/07/19 08:35:04;;;;;;;0.80;0.80;;;;;;;;;;5071546;28;20199;-83
2023/07/19 08:37:33;;;;;;;2.63;1.60;;;;;;;;;;5071731;28;20254;-84
2023/07/19 08:40:02;;;;;;;3.47;1.60;;;;;;;;;;5071633;28;20228;-83
2023/07/19 08:42:32;;;;;;;1.90;1.10;;;;;;;;;;5071285;28;20221;-85
2023/07/19 08:45:00;;;;;;;1.67;1.33;;;;;;;;;;5072269;28;20306;-85
2023/07/19 08:47:30;;;;;;;1.90;1.00;;;;;;;;;;5071943;28;20230;-83
2023/07/19 08:50:00;;;;;;;0.60;0.60;;;;;;;;;;5071803;28;20206;-83
2023/07/19 08:52:29;;;;;;;1.47;1.33;;;;;;;;;;5071098;28;20245;-83
2023/07/19 08:54:58;;;;;;;0.73;0.73;;;;;;;;;;5071376;28;20211;-83
2023/07/19 08:57:28;;;;;;;1.50;1.40;;;;;;;;;;5071298;28;20208;-83
2023/07/19 08:59:56;;;;;;;0.70;0.50;;;;;;;;;;5070904;28;20216;-83
2023/07/19 09:02:25;;;;;;;2.47;1.47;;;;;;;;;;5070898;28;20204;-83
2023/07/19 09:05:12;;;;;;;1.93;0.90;;;;;;;;;;5071866;28;20292;-84
2023/07/19 09:07:44;;;;;;;1.07;1.07;;;;;;;;;;5070807;28;20206;-83
2023/07/19 09:10:15;;;;;;;0.67;0.67;;;;;;;;;;5071446;28;20203;-84
2023/07/19 09:12:45;;;;;;;0.57;0.57;;;;;;;;;;5071158;28;20206;-84
2023/07/19 09:15:18;;;;;;;1.93;1.23;;;;;;;;;;5070840;28;20204;-84
2023/07/19 09:17:52;;;;;;;2.50;2.00;;;;;;;;;;5071100;28;20201;-84
2023/07/19 09:20:34;;;;;;;0.97;0.97;;;;;;;;;;5071224;28;20220;-83
2023/07/19 09:23:08;;;;;;;0.50;0.50;;;;;;;;;;5070928;28;20192;-83
2023/07/19 09:25:52;;;;;;;1.43;1.33;;;;;;;;;;5070616;28;20233;-84
2023/07/19 09:28:23;;;;;;;2.00;1.90;;;;;;;;;;5071224;28;20224;-83
2023/07/19 09:31:08;;;;;;;0.80;0.80;;;;;;;;;;5071397;28;20201;-84
2023/07/19 09:33:58;;;;;;;1.10;1.03;;;;;;;;;;5071211;28;20219;-83
2023/07/19 09:36:30;;;;;;;1.70;1.00;;;;;;;;;;5075049;28;20204;-82
2023/07/19 09:38:59;;;;;;;2.00;1.33;;;;;;;;;;5074977;28;20303;-84
2023/07/19 09:41:38;;;;;;;0.90;0.90;;;;;;;;;;5074321;28;20268;-83
2023/07/19 09:44:13;;;;;;;2.37;1.37;;;;;;;;;;5074389;28;20232;-84
2023/07/19 09:46:52;;;;;;;3.97;1.43;;;;;;;;;;5074981;28;20251;-84
2023/07/19 09:49:23;;;;;;;1.17;1.13;;;;;;;;;;5074435;28;20216;-84
2023/07/19 09:52:01;;;;;;;1.80;0.60;;;;;;;;;;5074047;28;20194;-83
2023/07/19 09:54:32;;;;;;;0.77;0.77;;;;;;;;;;5074557;28;20330;-83
2023/07/19 09:57:06;;;;;;;0.80;0.80;;;;;;;;;;5074521;28;20202;-82
2023/07/19 09:59:42;;;;;;;1.87;1.60;;;;;;;;;;5074129;28;20262;-83
2023/07/19 10:02:38;;;;;;;2.77;1.03;;;;;;;;;;5074247;28;20218;-83
2023/07/19 10:05:34;;;;;;;2.43;1.20;;;;;;;;;;5074022;28;20228;-83
2023/07/19 10:08:13;;;;;;;1.00;0.73;;;;;;;;;;5074171;28;20202;-83
2023/07/19 10:10:58;;;;;;;0.70;0.70;;;;;;;;;;5074287;28;20306;-83
2023/07/19 10:13:30;;;;;;;0.90;0.90;;;;;;;;;;5074584;28;20195;-83
2023/07/19 10:16:06;;;;;;;1.73;1.07;;;;;;;;;;5074296;28;20231;-84
2023/07/19 10:18:36;;;;;;;0.93;0.90;;;;;;;;;;5074245;28;20291;-83
2023/07/19 10:21:10;;;;;;;4.63;1.50;;;;;;;;;;5074252;28;20273;-83
2023/07/19 10:23:49;;;;;;;1.00;1.00;;;;;;;;;;5074495;28;20211;-84
2023/07/19 10:26:30;;;;;;;0.70;0.70;;;;;;;;;;5073605;28;20209;-83
2023/07/19 10:29:07;;;;;;;1.03;1.03;;;;;;;;;;5074381;28;20230;-84
2023/07/19 10:31:40;;;;;;;0.80;0.80;;;;;;;;;;5074610;28;20201;-84
2023/07/19 10:34:13;;;;;;;0.70;0.70;;;;;;;;;;5073838;28;20203;-84
2023/07/19 10:36:52;;;;;;;0.40;0.40;;;;;;;;;;5074024;28;20205;-84
2023/07/19 10:39:32;;;;;;;0.50;0.50;;;;;;;;;;5074114;28;20242;-83
2023/07/19 10:42:12;;;;;;;0.33;0.33;;;;;;;;;;5073327;28;20311;-83
2023/07/19 10:44:41;;;;;;;1.00;0.70;;;;;;;;;;5073319;28;20195;-83
2023/07/19 10:47:18;;;;;;;0.93;0.87;;;;;;;;;;5074058;28;20195;-83
2023/07/19 10:49:49;;;;;;;0.60;0.60;;;;;;;;;;5073972;28;20197;-84
2023/07/19 10:52:25;;;;;;;0.53;0.53;;;;;;;;;;5073380;28;20182;-84
2023/07/19 10:54:57;;;;;;;0.57;0.57;;;;;;;;;;5073905;28;20298;-83
2023/07/19 10:57:45;;;;;;;1.40;0.50;;;;;;;;;;5073577;28;20203;-83
2023/07/19 11:00:15;;;;;;;0.80;0.80;;;;;;;;;;5072900;28;20195;-84
2023/07/19 11:02:46;;;;;;;0.70;0.70;;;;;;;;;;5073416;28;20291;-84
2023/07/19 11:05:15;;;;;;;2.30;1.30;;;;;;;;;;5073627;28;20236;-83
2023/07/19 11:07:44;;;;;;;1.17;1.10;;;;;;;;;;5073036;28;20201;-84
2023/07/19 11:10:13;;;;;;;1.47;1.20;;;;;;;;;;5072788;28;20201;-84
2023/07/19 11:12:42;;;;;;;0.77;0.73;;;;;;;;;;5073469;28;20204;-83
2023/07/19 11:15:11;;;;;;;1.13;1.13;;;;;;;;;;5073464;28;20205;-84
2023/07/19 11:17:40;;;;;;;2.43;0.97;;;;;;;;;;5072958;28;20213;-84
2023/07/19 11:20:12;;;;;;;2.17;1.17;;;;;;;;;;5073440;28;20291;-84
2023/07/19 11:22:40;;;;;;;6.47;1.10;;;;;;;;;;5072792;28;20220;-83
2023/07/19 11:25:22;;;;;;;0.73;0.73;;;;;;;;;;5072752;28;20190;-84
2023/07/19 11:27:50;;;;;;;2.10;1.80;;;;;;;;;;5072428;28;20303;-83
2023/07/19 11:30:25;;;;;;;1.97;1.40;;;;;;;;;;5073174;28;20197;-83
2023/07/19 11:33:04;;;;;;;1.00;1.00;;;;;;;;;;5072877;28;20196;-83
2023/07/19 11:35:43;;;;;;;0.40;0.40;;;;;;;;;;5072888;28;20226;-84
2023/07/19 11:38:20;;;;;;;1.57;0.80;;;;;;;;;;5072282;28;20322;-84
2023/07/19 11:40:57;;;;;;;1.53;1.07;;;;;;;;;;5072460;28;20189;-84
2023/07/19 11:43:31;;;;;;;0.73;0.73;;;;;;;;;;5072598;28;20224;-83
2023/07/19 11:46:04;;;;;;;2.03;1.47;;;;;;;;;;5072659;28;20201;-84
2023/07/19 11:48:33;;;;;;;1.93;0.80;;;;;;;;;;5073004;28;20212;-83
2023/07/19 11:51:11;;;;;;;1.77;1.27;;;;;;;;;;5072554;28;20205;-83
2023/07/19 11:53:44;;;;;;;4.20;1.23;;;;;;;;;;5071894;28;20254;-83
2023/07/19 11:56:19;;;;;;;1.90;1.80;;;;;;;;;;5071921;28;20203;-82
2023/07/19 11:58:49;;;;;;;0.70;0.70;;;;;;;;;;5072371;28;20284;-83
2023/07/19 12:01:21;;;;;;;3.10;1.20;;;;;;;;;;5068657;28;20274;-84
2023/07/19 12:04:04;;;;;;;1.40;1.03;;;;;;;;;;5068126;28;20251;-83
2023/07/19 12:06:36;;;;;;;0.87;0.87;;;;;;;;;;5072461;28;20278;-83
2023/07/19 12:09:13;;;;;;;0.80;0.80;;;;;;;;;;5071643;28;20192;-83
2023/07/19 12:11:47;;;;;;;2.97;1.43;;;;;;;;;;5071887;28;20228;-83
2023/07/19 12:14:32;;;;;;;0.30;0.30;;;;;;;;;;5071904;28;20294;-83
2023/07/19 12:17:04;;;;;;;0.80;0.80;;;;;;;;;;5072177;28;20234;-83
2023/07/19 12:19:34;;;;;;;1.40;1.30;;;;;;;;;;5071577;28;20231;-83
2023/07/19 12:22:07;;;;;;;0.80;0.80;;;;;;;;;;5072196;28;20231;-84
2023/07/19 12:24:42;;;;;;;1.80;1.17;;;;;;;;;;5072070;28;20206;-83
2023/07/19 12:27:13;;;;;;;2.23;1.63;;;;;;;;;;5072218;28;20288;-83
2023/07/19 12:29:50;;;;;;;1.37;0.70;;;;;;;;;;5071792;28;20201;-84
2023/07/19 12:32:31;;;;;;;1.53;1.43;;;;;;;;;;5071900;28;20190;-82
2023/07/19 12:35:05;;;;;;;1.90;1.20;;;;;;;;;;5072136;28;20207;-81
2023/07/19 12:37:41;;;;;;;0.87;0.73;;;;;;;;;;5071491;28;20202;-83
2023/07/19 12:40:19;;;;;;;1.33;1.13;;;;;;;;;;5071843;28;20195;-83
2023/07/19 12:42:52;;;;;;;4.00;1.73;;;;;;;;;;5071305;28;20236;-83
2023/07/19 12:45:24;;;;;;;0.97;0.97;;;;;;;;;;5071094;28;20190;-82
2023/07/19 12:47:53;;;;;;;0.80;0.80;;;;;;;;;;5071467;28;20194;-83
2023/07/19 12:50:22;;;;;;;4.77;1.63;;;;;;;;;;5072072;28;20228;-83
2023/07/19 12:52:53;;;;;;;0.73;0.73;;;;;;;;;;5071345;28;20250;-84
2023/07/19 12:55:21;;;;;;;1.90;1.47;;;;;;;;;;5071559;28;20215;-83
2023/07/19 12:57:50;;;;;;;0.87;0.83;;;;;;;;;;5071561;28;20269;-84
2023/07/19 13:00:19;;;;;;;1.17;1.10;;;;;;;;;;5071360;28;20213;-83
2023/07/19 13:02:56;;;;;;;2.23;0.90;;;;;;;;;;5070748;28;20250;-84
2023/07/19 13:05:26;;;;;;;1.27;0.80;;;;;;;;;;5071730;28;20202;-84
2023/07/19 13:08:01;;;;;;;1.20;1.10;;;;;;;;;;5072505;28;20286;-84
2023/07/19 13:10:31;;;;;;;0.90;0.90;;;;;;;;;;5075066;28;20199;-81
2023/07/19 13:13:00;;;;;;;2.30;1.27;;;;;;;;;;5075232;28;20197;-83
2023/07/19 13:15:29;;;;;;;0.80;0.80;;;;;;;;;;5075436;28;20211;-83
2023/07/19 13:18:00;;;;;;;2.40;1.73;;;;;;;;;;5075745;28;20200;-83
2023/07/19 13:20:28;;;;;;;1.40;0.97;;;;;;;;;;5075246;28;20234;-83
2023/07/19 13:23:02;;;;;;;0.67;0.63;;;;;;;;;;5075443;28;20217;-83
2023/07/19 13:25:35;;;;;;;1.30;1.00;;;;;;;;;;5075369;28;20201;-83
2023/07/19 13:28:08;;;;;;;1.63;1.50;;;;;;;;;;5074774;28;20274;-82
2023/07/19 13:30:37;;;;;;;0.70;0.70;;;;;;;;;;5074818;28;20202;-83
2023/07/19 13:33:09;;;;;;;1.93;1.27;;;;;;;;;;5075087;28;20199;-83
2023/07/19 13:35:43;;;;;;;1.90;1.30;;;;;;;;;;5075108;28;20252;-82
2023/07/19 13:38:16;;;;;;;1.73;1.30;;;;;;;;;;5074930;28;20206;-82
2023/07/19 13:40:45;;;;;;;3.03;1.43;;;;;;;;;;5075042;28;20218;-82
2023/07/19 13:43:14;;;;;;;1.07;1.07;;;;;;;;;;5074883;28;20256;-83
2023/07/19 13:45:45;;;;;;;1.67;1.53;;;;;;;;;;5074543;28;20196;-83
2023/07/19 13:48:14;;;;;;;3.83;1.60;;;;;;;;;;5074598;28;20196;-83
2023/07/19 13:50:43;;;;;;;1.50;0.90;;;;;;;;;;5074771;28;20298;-82
2023/07/19 13:53:12;;;;;;;1.80;1.10;;;;;;;;;;5074280;28;20219;-82
2023/07/19 13:55:42;;;;;;;1.23;1.13;;;;;;;;;;5074009;28;20220;-83
2023/07/19 13:58:13;;;;;;;1.00;0.93;;;;;;;;;;5074860;28;20212;-83
2023/07/19 14:00:42;;;;;;;0.80;0.80;;;;;;;;;;5074881;28;20202;-83
2023/07/19 14:03:11;;;;;;;2.27;1.30;;;;;;;;;;5074539;28;20216;-82
2023/07/19 14:05:42;;;;;;;3.33;1.00;;;;;;;;;;5074209;28;20205;-83
2023/07/19 14:08:18;;;;;;;0.83;0.83;;;;;;;;;;5074378;28;20197;-82
2023/07/19 14:10:50;;;;;;;1.20;1.10;;;;;;;;;;5074362;28;20193;-82
2023/07/19 14:13:20;;;;;;;1.10;0.83;;;;;;;;;;5073552;28;20215;-81
2023/07/19 14:15:55;;;;;;;3.97;0.80;;;;;;;;;;5074369;28;20196;-82
2023/07/19 14:18:34;;;;;;;0.83;0.83;;;;;;;;;;5074083;28;20205;-83
2023/07/19 14:21:02;;;;;;;1.30;1.20;;;;;;;;;;5073475;28;20212;-83
2023/07/19 14:23:38;;;;;;;1.93;1.30;;;;;;;;;;5074360;28;20214;-82
2023/07/19 14:26:08;;;;;;;0.87;0.67;;;;;;;;;;5074034;28;20196;-82
2023/07/19 14:28:37;;;;;;;3.03;1.27;;;;;;;;;;5074059;28;20220;-82
2023/07/19 14:31:08;;;;;;;2.87;0.80;;;;;;;;;;5073590;28;20200;-83
2023/07/19 14:33:37;;;;;;;1.20;1.10;;;;;;;;;;5073945;28;20231;-82
2023/07/19 14:36:06;;;;;;;1.10;1.00;;;;;;;;;;5073923;28;20199;-82
2023/07/19 14:38:35;;;;;;;1.17;1.13;;;;;;;;;;5073884;28;20240;-82
2023/07/19 14:41:04;;;;;;;1.20;1.07;;;;;;;;;;5073598;28;20280;-82
2023/07/19 14:43:40;;;;;;;0.60;0.60;;;;;;;;;;5073790;28;20298;-83
2023/07/19 14:46:09;;;;;;;0.93;0.93;;;;;;;;;;5073850;28;20204;-82
2023/07/19 14:48:40;;;;;;;0.80;0.80;;;;;;;;;;5073624;28;20219;-82
2023/07/19 14:51:09;;;;;;;0.87;0.60;;;;;;;;;;5073786;28;20204;-82
2023/07/19 14:53:46;;;;;;;0.83;0.83;;;;;;;;;;5073701;28;20235;-83
2023/07/19 14:56:16;;;;;;;2.73;1.13;;;;;;;;;;5073307;28;20255;-83
2023/07/19 14:58:48;;;;;;;0.73;0.57;;;;;;;;;;5073649;28;20206;-82
2023/07/19 15:01:24;;;;;;;1.77;1.50;;;;;;;;;;5073471;28;20219;-83
2023/07/19 15:03:57;;;;;;;0.83;0.83;;;;;;;;;;5073478;28;20228;-83
2023/07/19 15:06:29;;;;;;;2.90;1.07;;;;;;;;;;5073154;28;20209;-83
2023/07/19 15:08:59;;;;;;;0.93;0.93;;;;;;;;;;5072836;28;20197;-83
2023/07/19 15:11:29;;;;;;;0.70;0.70;;;;;;;;;;5072704;28;20254;-83
2023/07/19 15:14:01;;;;;;;1.27;1.03;;;;;;;;;;5054694;28;20201;-83
2023/07/19 15:16:31;;;;;;;0.73;0.73;;;;;;;;;;5073180;28;20199;-83